createdAt,value
2019-03-13T00:00:59.568Z,10.02
2019-03-13T00:03:30.014Z,9.91
2019-03-13T00:06:00.434Z,9.78
2019-03-13T00:08:30.731Z,9.70
2019-03-13T00:11:01.009Z,9.58
2019-03-13T00:13:31.375Z,9.41
2019-03-13T00:16:01.747Z,9.21
2019-03-13T00:18:32.058Z,8.71
2019-03-13T00:21:02.338Z,8.54
2019-03-13T00:23:32.630Z,8.24
2019-03-13T00:26:02.830Z,8.04
2019-03-13T00:28:33.227Z,8.00
2019-03-13T00:31:03.703Z,7.95
2019-03-13T00:33:33.855Z,7.80
2019-03-13T00:36:04.362Z,7.66
2019-03-13T00:38:34.770Z,7.52
2019-03-13T00:41:05.346Z,7.39
2019-03-13T00:43:35.650Z,7.31
2019-03-13T00:46:06.241Z,7.13
2019-03-13T00:48:36.638Z,6.98
2019-03-13T00:51:07.010Z,6.90
2019-03-13T00:53:37.290Z,6.82
2019-03-13T00:56:07.665Z,6.80
2019-03-13T00:58:37.967Z,6.71
2019-03-13T01:01:25.949Z,6.57
2019-03-13T01:04:21.164Z,6.53
2019-03-13T01:06:55.650Z,6.53
2019-03-13T01:09:25.915Z,6.47
2019-03-13T01:11:56.284Z,6.41
2019-03-13T01:14:26.631Z,6.39
2019-03-13T01:16:56.880Z,6.32
2019-03-13T01:19:27.228Z,6.24
2019-03-13T01:21:57.639Z,6.26
2019-03-13T01:24:28.184Z,6.25
2019-03-13T01:26:58.435Z,6.21
2019-03-13T01:29:28.770Z,6.23
2019-03-13T01:32:16.879Z,6.14
2019-03-13T01:34:53.905Z,6.14
2019-03-13T01:37:24.173Z,6.22
2019-03-13T01:39:54.473Z,6.11
2019-03-13T01:42:24.774Z,6.12
2019-03-13T01:44:55.057Z,6.07
2019-03-13T01:47:25.386Z,6.03
2019-03-13T01:49:55.649Z,6.00
2019-03-13T01:52:25.974Z,5.99
2019-03-13T01:54:56.135Z,5.98
2019-03-13T01:57:26.451Z,5.94
2019-03-13T01:59:56.882Z,5.93
2019-03-13T02:02:27.137Z,5.92
2019-03-13T02:04:57.534Z,6.00
2019-03-13T02:07:28.136Z,5.99
2019-03-13T02:09:58.526Z,5.89
2019-03-13T02:12:28.968Z,5.88
2019-03-13T02:14:59.214Z,5.89
2019-03-13T02:17:29.645Z,5.84
2019-03-13T02:19:59.897Z,5.71
2019-03-13T02:22:30.222Z,5.67
2019-03-13T02:25:00.453Z,5.59
2019-03-13T02:27:30.695Z,5.52
2019-03-13T02:30:01.017Z,5.46
2019-03-13T02:32:31.195Z,5.40
2019-03-13T02:35:01.486Z,5.44
2019-03-13T02:37:31.780Z,5.39
2019-03-13T02:40:03.086Z,5.24
2019-03-13T02:42:33.410Z,5.33
2019-03-13T02:45:03.746Z,5.29
2019-03-13T02:47:34.136Z,5.29
2019-03-13T02:50:04.867Z,5.21
2019-03-13T02:52:35.070Z,5.22
2019-03-13T02:55:05.756Z,5.23
2019-03-13T02:57:36.093Z,5.16
2019-03-13T03:00:10.436Z,5.20
2019-03-13T03:02:56.335Z,5.26
2019-03-13T03:05:26.628Z,5.35
2019-03-13T03:07:57.027Z,5.34
2019-03-13T03:10:28.066Z,5.43
2019-03-13T03:12:58.312Z,5.39
2019-03-13T03:15:28.635Z,5.40
2019-03-13T03:17:58.989Z,5.38
2019-03-13T03:20:29.280Z,5.41
2019-03-13T03:22:59.526Z,5.43
2019-03-13T03:25:29.803Z,5.42
2019-03-13T03:28:00.099Z,5.35
2019-03-13T03:30:30.514Z,5.29
2019-03-13T03:33:00.959Z,5.20
2019-03-13T03:35:31.371Z,5.18
2019-03-13T03:38:02.035Z,5.03
2019-03-13T03:40:32.200Z,5.05
2019-03-13T03:43:02.542Z,5.00
2019-03-13T03:45:33.000Z,4.92
2019-03-13T03:48:03.650Z,4.96
2019-03-13T03:50:34.137Z,5.00
2019-03-13T03:53:04.560Z,5.09
2019-03-13T03:55:34.783Z,5.08
2019-03-13T03:58:05.240Z,5.14
2019-03-13T04:00:35.650Z,5.18
2019-03-13T04:03:06.068Z,5.10
2019-03-13T04:05:36.398Z,5.18
2019-03-13T04:08:07.737Z,5.29
2019-03-13T04:10:38.067Z,5.24
2019-03-13T04:13:08.527Z,5.21
2019-03-13T04:15:38.922Z,5.21
2019-03-13T04:18:09.361Z,5.23
2019-03-13T04:20:39.713Z,5.23
2019-03-13T04:23:10.012Z,5.19
2019-03-13T04:25:40.441Z,5.24
2019-03-13T04:28:10.959Z,5.22
2019-03-13T04:30:41.387Z,5.21
2019-03-13T04:33:11.744Z,5.13
2019-03-13T04:35:41.933Z,5.25
2019-03-13T04:38:12.126Z,5.20
2019-03-13T04:40:42.642Z,5.22
2019-03-13T04:43:12.800Z,5.18
2019-03-13T04:45:43.040Z,5.19
2019-03-13T04:48:13.343Z,5.21
2019-03-13T04:50:43.749Z,5.21
2019-03-13T04:53:14.099Z,5.21
2019-03-13T04:55:44.413Z,5.22
2019-03-13T04:58:14.826Z,5.29
2019-03-13T05:00:46.280Z,5.29
2019-03-13T05:03:16.519Z,5.26
2019-03-13T05:05:53.241Z,5.26
2019-03-13T05:08:45.127Z,5.17
2019-03-13T05:11:10.168Z,5.12
2019-03-13T05:13:40.449Z,5.09
2019-03-13T05:16:10.812Z,5.09
2019-03-13T05:18:41.111Z,5.07
2019-03-13T05:21:11.436Z,5.09
2019-03-13T05:23:41.667Z,5.04
2019-03-13T05:26:11.855Z,5.07
2019-03-13T05:28:42.408Z,5.04
2019-03-13T05:31:12.792Z,5.04
2019-03-13T05:33:42.936Z,5.08
2019-03-13T05:36:16.516Z,5.05
2019-03-13T05:38:45.351Z,4.93
2019-03-13T05:41:15.651Z,4.82
2019-03-13T05:43:46.044Z,4.78
2019-03-13T05:46:16.373Z,4.74
2019-03-13T05:48:46.648Z,4.64
2019-03-13T05:51:16.986Z,4.61
2019-03-13T05:53:47.220Z,4.59
2019-03-13T05:56:17.603Z,4.56
2019-03-13T05:58:47.820Z,4.57
2019-03-13T06:01:18.268Z,4.52
2019-03-13T06:03:48.724Z,4.68
2019-03-13T06:06:19.030Z,4.75
2019-03-13T06:08:49.402Z,4.71
2019-03-13T06:11:19.724Z,4.48
2019-03-13T06:13:50.067Z,4.45
2019-03-13T06:16:20.514Z,4.46
2019-03-13T06:18:53.651Z,4.48
2019-03-13T06:21:23.963Z,4.47
2019-03-13T06:23:54.247Z,4.52
2019-03-13T06:26:24.677Z,4.52
2019-03-13T06:28:54.861Z,4.51
2019-03-13T06:31:25.044Z,4.56
2019-03-13T06:33:55.272Z,4.57
2019-03-13T06:36:25.622Z,4.56
2019-03-13T06:38:55.985Z,4.66
2019-03-13T06:41:27.894Z,4.82
2019-03-13T06:43:58.024Z,4.48
2019-03-13T06:46:28.293Z,4.24
2019-03-13T06:48:58.613Z,4.16
2019-03-13T06:51:28.940Z,3.86
2019-03-13T06:53:59.319Z,3.65
2019-03-13T06:56:30.969Z,3.58
2019-03-13T06:59:13.837Z,3.62
2019-03-13T07:02:06.147Z,3.70
2019-03-13T07:04:54.068Z,3.98
2019-03-13T07:07:37.489Z,4.19
2019-03-13T07:10:17.141Z,4.42
2019-03-13T07:13:12.413Z,4.53
2019-03-13T07:15:50.574Z,4.60
2019-03-13T07:18:25.708Z,4.60
2019-03-13T07:21:17.894Z,4.71
2019-03-13T07:23:57.067Z,4.70
2019-03-13T07:26:44.793Z,4.88
2019-03-13T07:29:37.033Z,5.17
2019-03-13T07:32:41.571Z,5.37
2019-03-13T07:35:28.061Z,5.49
2019-03-13T07:38:11.007Z,5.49
2019-03-13T07:41:12.510Z,5.50
2019-03-13T07:43:58.205Z,5.64
2019-03-13T07:46:43.651Z,6.07
2019-03-13T07:49:41.472Z,6.10
2019-03-13T07:52:32.521Z,6.18
2019-03-13T07:55:35.411Z,6.16
2019-03-13T07:58:19.544Z,6.33
2019-03-13T08:01:04.914Z,6.26
2019-03-13T08:03:44.982Z,6.32
2019-03-13T08:06:52.793Z,6.41
2019-03-13T08:09:53.843Z,6.37
2019-03-13T08:12:51.989Z,6.69
2019-03-13T08:15:40.324Z,6.70
2019-03-13T08:18:27.563Z,6.62
2019-03-13T08:21:21.008Z,6.83
2019-03-13T08:24:10.952Z,6.72
2019-03-13T08:26:59.053Z,6.88
2019-03-13T08:29:55.790Z,6.90
2019-03-13T08:32:34.240Z,7.17
2019-03-13T08:35:23.710Z,7.17
2019-03-13T08:38:01.865Z,6.76
2019-03-13T08:40:54.271Z,6.74
2019-03-13T08:43:39.731Z,7.30
2019-03-13T08:46:29.892Z,7.09
2019-03-13T08:49:10.799Z,7.89
2019-03-13T08:51:52.800Z,7.09
2019-03-13T08:54:41.955Z,7.17
2019-03-13T08:57:19.219Z,7.12
2019-03-13T08:59:58.452Z,6.85
2019-03-13T09:02:46.104Z,6.69
2019-03-13T09:05:34.374Z,6.94
2019-03-13T09:08:26.717Z,7.13
2019-03-13T09:11:15.604Z,7.21
2019-03-13T09:13:53.353Z,7.40
2019-03-13T09:16:45.387Z,7.34
2019-03-13T09:19:25.842Z,7.60
2019-03-13T09:22:12.188Z,7.77
2019-03-13T09:25:11.232Z,7.59
2019-03-13T09:27:38.292Z,7.57
2019-03-13T09:30:27.433Z,7.69
2019-03-13T09:33:15.574Z,7.67
2019-03-13T09:36:10.695Z,7.81
2019-03-13T09:38:52.110Z,7.98
2019-03-13T09:41:33.940Z,8.15
2019-03-13T09:44:23.042Z,8.27
2019-03-13T09:47:15.126Z,8.23
2019-03-13T09:50:19.437Z,8.21
2019-03-13T09:53:14.829Z,8.55
2019-03-13T09:56:04.059Z,8.61
2019-03-13T09:58:52.071Z,8.23
2019-03-13T10:01:41.429Z,8.42
2019-03-13T10:04:39.555Z,8.77
2019-03-13T10:07:27.533Z,8.59
2019-03-13T10:10:15.783Z,8.45
2019-03-13T10:12:56.501Z,8.32
2019-03-13T10:15:32.688Z,8.31
2019-03-13T10:18:30.672Z,8.59
2019-03-13T10:21:13.707Z,8.73
2019-03-13T10:23:51.841Z,8.74
2019-03-13T10:26:41.189Z,8.63
2019-03-13T10:29:23.427Z,7.68
2019-03-13T10:32:03.538Z,7.84
2019-03-13T10:34:58.954Z,7.92
2019-03-13T10:37:51.013Z,8.26
2019-03-13T10:40:40.341Z,7.96
2019-03-13T10:43:24.129Z,8.14
2019-03-13T10:46:01.156Z,8.27
2019-03-13T10:48:46.337Z,8.44
2019-03-13T10:51:35.494Z,8.52
2019-03-13T10:54:19.771Z,8.32
2019-03-13T10:57:15.668Z,8.15
2019-03-13T11:00:04.944Z,8.43
2019-03-13T11:02:51.184Z,9.02
2019-03-13T11:05:40.739Z,9.24
2019-03-13T11:08:25.702Z,8.96
2019-03-13T11:11:05.930Z,8.62
2019-03-13T11:13:43.773Z,8.45
2019-03-13T11:16:22.060Z,8.86
2019-03-13T11:19:09.018Z,8.23
2019-03-13T11:22:10.453Z,8.28
2019-03-13T11:24:47.317Z,7.98
2019-03-13T11:27:48.891Z,7.77
2019-03-13T11:30:41.394Z,7.79
2019-03-13T11:33:39.669Z,7.86
2019-03-13T11:36:35.307Z,7.92
2019-03-13T11:39:24.639Z,7.86
2019-03-13T11:42:12.931Z,7.88
2019-03-13T11:45:01.296Z,7.76
2019-03-13T11:48:01.860Z,7.74
2019-03-13T11:50:42.369Z,7.77
2019-03-13T11:53:34.645Z,7.90
2019-03-13T11:56:22.705Z,8.03
2019-03-13T11:59:11.019Z,8.10
2019-03-13T12:02:02.507Z,8.01
2019-03-13T12:04:43.907Z,8.22
2019-03-13T12:07:43.854Z,8.14
2019-03-13T12:10:35.300Z,8.59
2019-03-13T12:13:15.454Z,8.77
2019-03-13T12:16:10.745Z,8.97
2019-03-13T12:18:56.468Z,9.37
2019-03-13T12:21:45.733Z,9.74
2019-03-13T12:24:33.555Z,10.37
2019-03-13T12:27:41.404Z,9.98
2019-03-13T12:30:28.498Z,9.61
2019-03-13T12:33:08.323Z,9.41
2019-03-13T12:35:57.610Z,9.14
2019-03-13T12:38:46.978Z,9.18
2019-03-13T12:41:45.564Z,9.21
2019-03-13T12:44:34.764Z,9.09
2019-03-13T12:47:23.063Z,9.17
2019-03-13T12:50:04.668Z,9.05
2019-03-13T12:53:09.275Z,9.13
2019-03-13T12:56:16.818Z,9.42
2019-03-13T12:59:08.732Z,9.29
2019-03-13T13:01:58.051Z,9.86
2019-03-13T13:04:38.277Z,9.61
2019-03-13T13:07:26.502Z,9.58
2019-03-13T13:10:22.211Z,9.50
2019-03-13T13:13:05.431Z,9.43
2019-03-13T13:15:54.736Z,9.45
2019-03-13T13:18:47.838Z,9.65
2019-03-13T13:21:18.200Z,9.39
2019-03-13T13:23:48.667Z,8.38
2019-03-13T13:26:19.110Z,8.68
2019-03-13T13:28:49.410Z,8.61
2019-03-13T13:31:19.726Z,8.03
2019-03-13T13:33:50.033Z,8.41
2019-03-13T13:36:20.428Z,8.55
2019-03-13T13:38:50.814Z,8.49
2019-03-13T13:41:21.128Z,8.60
2019-03-13T13:43:51.430Z,9.04
2019-03-13T13:46:31.253Z,8.91
2019-03-13T13:49:01.554Z,9.10
2019-03-13T13:51:32.865Z,9.43
2019-03-13T13:54:03.400Z,9.85
2019-03-13T13:56:33.784Z,9.84
2019-03-13T13:59:04.160Z,9.33
2019-03-13T14:01:34.397Z,9.28
2019-03-13T14:04:04.758Z,9.54
2019-03-13T14:06:35.232Z,9.57
2019-03-13T14:09:06.697Z,9.26
2019-03-13T14:11:37.107Z,9.18
2019-03-13T14:14:07.537Z,9.07
2019-03-13T14:16:37.854Z,8.73
2019-03-13T14:19:08.153Z,8.51
2019-03-13T14:21:38.416Z,8.95
2019-03-13T14:24:08.768Z,9.03
2019-03-13T14:26:38.911Z,8.56
2019-03-13T14:29:09.259Z,8.86
2019-03-13T14:31:39.653Z,8.91
2019-03-13T14:34:10.014Z,8.81
2019-03-13T14:36:41.463Z,8.76
2019-03-13T14:39:11.705Z,8.74
2019-03-13T14:41:42.122Z,8.70
2019-03-13T14:44:12.425Z,8.61
2019-03-13T14:46:42.796Z,8.60
2019-03-13T14:49:13.100Z,8.87
2019-03-13T14:51:43.428Z,9.39
2019-03-13T14:54:13.852Z,9.21
2019-03-13T14:56:44.177Z,8.81
2019-03-13T14:59:14.561Z,8.93
2019-03-13T15:01:44.931Z,8.87
2019-03-13T15:04:15.268Z,8.84
2019-03-13T15:06:45.658Z,8.93
2019-03-13T15:09:15.919Z,8.68
2019-03-13T15:11:46.228Z,8.65
2019-03-13T15:14:16.586Z,8.64
2019-03-13T15:16:46.839Z,8.71
2019-03-13T15:19:17.488Z,8.77
2019-03-13T15:21:47.895Z,8.86
2019-03-13T15:24:18.253Z,9.16
2019-03-13T15:26:48.592Z,9.34
2019-03-13T15:29:18.941Z,9.23
2019-03-13T15:31:49.241Z,9.24
2019-03-13T15:34:19.561Z,8.96
2019-03-13T15:36:49.909Z,8.99
2019-03-13T15:39:20.257Z,8.74
2019-03-13T15:41:50.565Z,8.51
2019-03-13T15:44:21.059Z,8.46
2019-03-13T15:46:51.453Z,8.39
2019-03-13T15:49:21.661Z,8.42
2019-03-13T15:51:51.996Z,8.72
2019-03-13T15:54:22.309Z,8.72
2019-03-13T15:56:52.488Z,8.74
2019-03-13T15:59:22.681Z,8.66
2019-03-13T16:01:53.026Z,8.48
2019-03-13T16:04:23.336Z,8.41
2019-03-13T16:06:53.599Z,8.35
2019-03-13T16:09:23.829Z,8.21
2019-03-13T16:11:54.059Z,8.16
2019-03-13T16:14:24.490Z,7.96
2019-03-13T16:16:54.791Z,7.84
2019-03-13T16:19:25.232Z,7.69
2019-03-13T16:21:55.543Z,7.66
2019-03-13T16:24:25.856Z,7.74
2019-03-13T16:26:56.180Z,7.68
2019-03-13T16:29:26.425Z,7.71
2019-03-13T16:31:56.864Z,7.67
2019-03-13T16:34:27.185Z,7.58
2019-03-13T16:36:57.486Z,7.65
2019-03-13T16:39:27.835Z,7.61
2019-03-13T16:41:59.300Z,7.62
2019-03-13T16:44:30.766Z,7.60
2019-03-13T16:47:01.070Z,7.50
2019-03-13T16:49:35.399Z,7.51
2019-03-13T16:52:05.781Z,7.49
2019-03-13T16:54:36.061Z,7.51
2019-03-13T16:57:06.426Z,7.43
2019-03-13T16:59:36.857Z,7.44
2019-03-13T17:02:07.592Z,7.36
2019-03-13T17:04:37.942Z,7.36
2019-03-13T17:07:08.281Z,7.37
2019-03-13T17:09:38.661Z,7.34
2019-03-13T17:12:08.967Z,7.30
2019-03-13T17:14:39.322Z,7.29
2019-03-13T17:17:09.652Z,7.23
2019-03-13T17:19:39.983Z,7.17
2019-03-13T17:22:10.353Z,7.16
2019-03-13T17:24:40.731Z,7.05
2019-03-13T17:27:11.124Z,7.04
2019-03-13T17:29:42.480Z,6.99
2019-03-13T17:32:13.005Z,6.93
2019-03-13T17:34:43.145Z,6.90
2019-03-13T17:37:13.672Z,6.85
2019-03-13T17:39:43.983Z,6.87
2019-03-13T17:42:14.275Z,6.82
2019-03-13T17:44:44.524Z,6.83
2019-03-13T17:47:14.959Z,6.77
2019-03-13T17:49:45.202Z,6.79
2019-03-13T17:52:15.484Z,6.79
2019-03-13T17:54:45.647Z,6.85
2019-03-13T17:57:15.852Z,6.76
2019-03-13T17:59:46.100Z,6.79
2019-03-13T18:02:16.348Z,6.83
2019-03-13T18:04:46.760Z,6.74
2019-03-13T18:07:17.019Z,6.74
2019-03-13T18:09:47.287Z,6.67
2019-03-13T18:12:17.684Z,6.58
2019-03-13T18:14:49.049Z,6.60
2019-03-13T18:17:19.446Z,6.59
2019-03-13T18:19:50.221Z,6.53
2019-03-13T18:22:20.781Z,6.57
2019-03-13T18:24:51.023Z,6.40
2019-03-13T18:27:21.379Z,6.38
2019-03-13T18:29:51.731Z,6.36
2019-03-13T18:32:21.970Z,6.35
2019-03-13T18:34:52.231Z,6.37
2019-03-13T18:37:22.629Z,6.34
2019-03-13T18:39:52.888Z,6.28
2019-03-13T18:42:23.055Z,6.37
2019-03-13T18:44:53.285Z,6.39
2019-03-13T18:47:23.630Z,6.27
2019-03-13T18:49:54.036Z,6.20
2019-03-13T18:52:24.344Z,6.16
2019-03-13T18:54:54.556Z,6.09
2019-03-13T18:57:24.972Z,5.96
2019-03-13T18:59:55.370Z,5.89
2019-03-13T19:02:25.796Z,5.82
2019-03-13T19:04:57.624Z,5.84
2019-03-13T19:07:28.091Z,5.74
2019-03-13T19:09:58.512Z,5.64
2019-03-13T19:12:28.851Z,5.53
2019-03-13T19:14:59.231Z,5.41
2019-03-13T19:17:29.541Z,5.34
2019-03-13T19:20:00.930Z,5.23
2019-03-13T19:22:31.340Z,5.14
2019-03-13T19:25:01.690Z,5.06
2019-03-13T19:27:32.038Z,5.07
2019-03-13T19:30:02.509Z,5.04
2019-03-13T19:32:32.833Z,5.03
2019-03-13T19:35:03.270Z,5.02
2019-03-13T19:37:33.672Z,4.99
2019-03-13T19:40:04.253Z,4.94
2019-03-13T19:42:36.823Z,4.94
2019-03-13T19:45:10.208Z,4.91
2019-03-13T19:47:43.403Z,4.93
2019-03-13T19:50:16.075Z,4.97
2019-03-13T19:52:47.501Z,5.00
2019-03-13T19:55:18.006Z,4.99
2019-03-13T19:57:48.459Z,4.93
2019-03-13T20:00:21.311Z,4.91
2019-03-13T20:02:59.820Z,4.93
2019-03-13T20:05:25.774Z,4.96
2019-03-13T20:07:58.108Z,4.93
2019-03-13T20:10:28.487Z,4.86
2019-03-13T20:12:58.971Z,4.90
2019-03-13T20:15:29.651Z,4.85
2019-03-13T20:18:00.109Z,4.85
2019-03-13T20:20:30.446Z,4.85
2019-03-13T20:23:01.859Z,4.85
2019-03-13T20:25:32.371Z,4.84
2019-03-13T20:28:02.809Z,4.96
2019-03-13T20:30:33.245Z,5.01
2019-03-13T20:33:03.604Z,5.03
2019-03-13T20:35:36.531Z,5.11
2019-03-13T20:38:06.336Z,5.14
2019-03-13T20:40:40.893Z,5.11
2019-03-13T20:43:22.271Z,5.20
2019-03-13T20:45:52.637Z,5.23
2019-03-13T20:48:23.103Z,5.22
2019-03-13T20:50:53.569Z,5.21
2019-03-13T20:53:23.895Z,5.34
2019-03-13T20:55:54.155Z,5.37
2019-03-13T20:58:24.416Z,5.36
2019-03-13T21:03:32.208Z,5.36
2019-03-13T21:06:03.572Z,5.42
2019-03-13T21:08:33.991Z,5.59
2019-03-13T21:11:06.056Z,5.54
2019-03-13T21:13:36.426Z,5.57
2019-03-13T21:16:06.913Z,5.44
2019-03-13T21:18:37.284Z,5.42
2019-03-13T21:21:07.747Z,5.46
2019-03-13T21:23:38.104Z,5.37
2019-03-13T21:26:08.639Z,5.35
2019-03-13T21:28:38.958Z,5.32
2019-03-13T21:31:09.481Z,5.29
2019-03-13T21:33:39.896Z,5.35
2019-03-13T21:36:10.274Z,5.29
2019-03-13T21:38:40.597Z,5.29
2019-03-13T21:41:10.971Z,5.27
2019-03-13T21:43:41.325Z,5.21
2019-03-13T21:46:11.890Z,5.07
2019-03-13T21:48:42.275Z,5.03
2019-03-13T21:51:12.703Z,4.94
2019-03-13T21:53:43.179Z,4.86
2019-03-13T21:56:13.833Z,4.79
2019-03-13T21:58:44.303Z,4.84
2019-03-13T22:01:19.772Z,4.78
2019-03-13T22:03:46.819Z,4.81
2019-03-13T22:06:28.133Z,4.81
2019-03-13T22:08:49.310Z,4.79
2019-03-13T22:11:19.720Z,4.74
2019-03-13T22:13:50.061Z,4.75
2019-03-13T22:16:20.495Z,4.82
2019-03-13T22:18:52.925Z,4.78
2019-03-13T22:21:23.265Z,4.74
2019-03-13T22:23:53.645Z,4.68
2019-03-13T22:26:24.151Z,4.59
2019-03-13T22:28:54.658Z,4.56
2019-03-13T22:31:24.983Z,4.59
2019-03-13T22:33:55.435Z,4.57
2019-03-13T22:36:25.810Z,4.54
2019-03-13T22:38:56.197Z,4.51
2019-03-13T22:41:26.472Z,4.50
2019-03-13T22:43:56.851Z,4.54
2019-03-13T22:46:27.248Z,4.68
2019-03-13T22:48:58.667Z,4.71
2019-03-13T22:51:29.179Z,4.77
2019-03-13T22:53:59.799Z,4.76
2019-03-13T22:56:30.125Z,4.83
2019-03-13T22:59:00.761Z,4.88
2019-03-13T23:01:31.296Z,4.88
2019-03-13T23:04:01.741Z,4.93
2019-03-13T23:06:32.088Z,4.92
2019-03-13T23:09:04.051Z,4.95
2019-03-13T23:11:34.462Z,4.98
2019-03-13T23:14:04.901Z,4.99
2019-03-13T23:16:35.234Z,5.04
2019-03-13T23:19:05.686Z,5.04
2019-03-13T23:21:36.060Z,5.04
2019-03-13T23:24:06.538Z,5.11
2019-03-13T23:26:37.012Z,5.13
2019-03-13T23:29:07.455Z,5.18
2019-03-13T23:31:37.852Z,5.09
2019-03-13T23:34:08.418Z,5.11
2019-03-13T23:36:38.775Z,5.04
2019-03-13T23:39:09.895Z,5.03
2019-03-13T23:41:40.296Z,5.06
2019-03-13T23:44:10.938Z,5.13
2019-03-13T23:46:41.345Z,5.11
2019-03-13T23:49:11.735Z,5.10
2019-03-13T23:51:42.091Z,5.11
2019-03-13T23:54:12.372Z,5.18
2019-03-13T23:56:42.613Z,5.16
2019-03-13T23:59:13.021Z,5.08
